createdAt,value
2022-10-22T00:01:06.962Z,100763.56
2022-10-22T00:03:33.864Z,100761.75
2022-10-22T00:06:00.578Z,100754.16
2022-10-22T00:08:27.394Z,100752.59
2022-10-22T00:10:54.234Z,100731.97
2022-10-22T00:13:24.140Z,100740.31
2022-10-22T00:15:50.927Z,100737.53
2022-10-22T00:18:17.581Z,100734.38
2022-10-22T00:20:44.289Z,100735.69
2022-10-22T00:23:10.972Z,100735.56
2022-10-22T00:25:37.700Z,100730.69
2022-10-22T00:28:04.496Z,100722.41
2022-10-22T00:30:31.344Z,100714.81
2022-10-22T00:32:58.050Z,100730.28
2022-10-22T00:35:24.720Z,100723.78
2022-10-22T00:37:51.462Z,100717.81
2022-10-22T00:40:18.317Z,100660.59
2022-10-22T00:42:45.061Z,100727.16
2022-10-22T00:45:11.688Z,100722.97
2022-10-22T00:47:59.403Z,100716.88
2022-10-22T00:50:40.132Z,100720.94
2022-10-22T00:53:10.978Z,100719.41
2022-10-22T00:55:39.191Z,100708.66
2022-10-22T00:58:06.240Z,100708.94
2022-10-22T01:00:33.257Z,100714.38
2022-10-22T01:03:00.536Z,100711.22
2022-10-22T01:05:33.214Z,100712.34
2022-10-22T01:07:59.918Z,100710.28
2022-10-22T01:10:52.422Z,100712.66
2022-10-22T01:13:46.887Z,100710.03
2022-10-22T01:16:35.053Z,100698.16
2022-10-22T01:19:27.817Z,100701.66
2022-10-22T01:22:05.281Z,100707.88
2022-10-22T01:24:48.886Z,100697.81
2022-10-22T01:27:34.455Z,100696.53
2022-10-22T01:30:09.396Z,100695.91
2022-10-22T01:32:48.444Z,100692.94
2022-10-22T01:35:21.898Z,100693.91
2022-10-22T01:37:53.565Z,100693.28
2022-10-22T01:40:21.981Z,100698.25
2022-10-22T01:43:10.489Z,100694.13
2022-10-22T01:45:42.664Z,100683.69
2022-10-22T01:48:46.856Z,100694.66
2022-10-22T01:51:13.629Z,100695.13
2022-10-22T01:54:04.836Z,100693.44
2022-10-22T01:57:04.450Z,100688.28
2022-10-22T01:59:45.066Z,100690.06
2022-10-22T02:02:49.672Z,100690.28
2022-10-22T02:05:25.385Z,100687.97
2022-10-22T02:08:03.510Z,100690.44
2022-10-22T02:10:31.217Z,100688.41
2022-10-22T02:13:00.035Z,100696.72
2022-10-22T02:15:30.241Z,100682.81
2022-10-22T02:17:58.974Z,100692.22
2022-10-22T02:20:33.122Z,100679.19
2022-10-22T02:23:01.937Z,100672.75
2022-10-22T02:25:32.514Z,100675.59
2022-10-22T02:28:05.241Z,100686.72
2022-10-22T02:30:34.168Z,100682.47
2022-10-22T02:33:04.604Z,100672.38
2022-10-22T02:35:32.041Z,100674.59
2022-10-22T02:38:00.134Z,100683.81
2022-10-22T02:40:28.913Z,100669.56
2022-10-22T02:42:55.718Z,100688.28
2022-10-22T02:45:23.193Z,100689.44
2022-10-22T02:47:50.212Z,100681.56
2022-10-22T02:50:17.308Z,100690.63
2022-10-22T02:52:44.289Z,100691.50
2022-10-22T02:55:11.022Z,100701.94
2022-10-22T02:57:38.003Z,100705.59
2022-10-22T03:00:06.795Z,100703.25
2022-10-22T03:02:33.678Z,100707.03
2022-10-22T03:05:00.681Z,100701.06
2022-10-22T03:07:27.500Z,100701.25
2022-10-22T03:09:54.173Z,100702.72
2022-10-22T03:12:21.094Z,100701.53
2022-10-22T03:14:47.842Z,100699.34
2022-10-22T03:17:14.632Z,100702.16
2022-10-22T03:19:42.251Z,100698.13
2022-10-22T03:22:18.989Z,100681.56
2022-10-22T03:24:47.786Z,100687.41
2022-10-22T03:27:16.794Z,100701.22
2022-10-22T03:29:44.267Z,100680.56
2022-10-22T03:32:11.001Z,100635.19
2022-10-22T03:34:37.838Z,100694.72
2022-10-22T03:37:04.714Z,100694.41
2022-10-22T03:39:34.603Z,100688.53
2022-10-22T03:42:02.231Z,100689.66
2022-10-22T03:44:29.683Z,100674.28
2022-10-22T03:46:58.789Z,100684.59
2022-10-22T03:49:29.037Z,100676.91
2022-10-22T03:51:55.818Z,100673.31
2022-10-22T03:54:22.701Z,100682.09
2022-10-22T03:56:49.370Z,100676.16
2022-10-22T03:59:16.286Z,100665.34
2022-10-22T04:01:51.174Z,100668.06
2022-10-22T04:04:17.857Z,100662.06
2022-10-22T04:06:44.566Z,100653.78
2022-10-22T04:09:11.331Z,100671.63
2022-10-22T04:11:38.057Z,100669.66
2022-10-22T04:14:04.918Z,100656.81
2022-10-22T04:16:32.950Z,100668.22
2022-10-22T04:18:59.985Z,100664.50
2022-10-22T04:21:26.849Z,100657.75
2022-10-22T04:23:53.920Z,100658.47
2022-10-22T04:26:21.228Z,100656.50
2022-10-22T04:28:49.909Z,100660.75
2022-10-22T04:31:20.417Z,100659.16
2022-10-22T04:33:47.691Z,100650.06
2022-10-22T04:36:17.693Z,100664.41
2022-10-22T04:38:46.685Z,100658.94
2022-10-22T04:41:16.315Z,100651.09
2022-10-22T04:43:43.848Z,100676.72
2022-10-22T04:46:11.802Z,100678.50
2022-10-22T04:48:40.465Z,100676.22
2022-10-22T04:51:09.428Z,100684.84
2022-10-22T04:53:37.065Z,100677.69
2022-10-22T04:56:20.673Z,100682.41
2022-10-22T04:59:07.339Z,100686.72
2022-10-22T05:01:43.228Z,100685.56
2022-10-22T05:04:16.694Z,100688.38
2022-10-22T05:06:44.027Z,100685.81
2022-10-22T05:09:17.117Z,100683.91
2022-10-22T05:11:48.396Z,100696.34
2022-10-22T05:14:23.534Z,100699.53
2022-10-22T05:16:51.702Z,100692.44
2022-10-22T05:19:24.197Z,100701.34
2022-10-22T05:21:56.401Z,100697.03
2022-10-22T05:24:23.502Z,100700.13
2022-10-22T05:26:51.356Z,100684.13
2022-10-22T05:29:18.345Z,100698.06
2022-10-22T05:31:45.111Z,100697.94
2022-10-22T05:34:12.467Z,100703.19
2022-10-22T05:36:39.408Z,100697.97
2022-10-22T05:39:06.218Z,100689.06
2022-10-22T05:41:34.232Z,100703.59
2022-10-22T05:44:01.200Z,100698.25
2022-10-22T05:46:30.534Z,100696.66
2022-10-22T05:49:01.213Z,100688.00
2022-10-22T05:51:30.457Z,100693.16
2022-10-22T05:53:59.671Z,100689.56
2022-10-22T05:56:28.407Z,100668.25
2022-10-22T05:58:56.525Z,100686.47
2022-10-22T06:01:29.413Z,100672.84
2022-10-22T06:03:59.426Z,100683.06
2022-10-22T06:06:39.540Z,100685.88
2022-10-22T06:09:27.999Z,100693.00
2022-10-22T06:11:56.395Z,100701.00
2022-10-22T06:14:24.234Z,100707.78
2022-10-22T06:16:51.883Z,100697.94
2022-10-22T06:19:20.785Z,100704.28
2022-10-22T06:21:48.294Z,100709.72
2022-10-22T06:24:15.461Z,100714.63
2022-10-22T06:26:42.774Z,100705.03
2022-10-22T06:29:10.048Z,100702.19
2022-10-22T06:31:37.218Z,100703.00
2022-10-22T06:34:10.696Z,100702.38
2022-10-22T06:36:37.598Z,100711.63
2022-10-22T06:39:05.581Z,100712.28
2022-10-22T06:41:32.548Z,100705.59
2022-10-22T06:44:00.210Z,100715.69
2022-10-22T06:46:27.236Z,100719.28
2022-10-22T06:48:59.490Z,100709.72
2022-10-22T06:51:27.415Z,100710.78
2022-10-22T06:53:55.576Z,100709.31
2022-10-22T06:56:24.941Z,100703.47
2022-10-22T06:58:53.365Z,100702.09
2022-10-22T07:01:22.504Z,100703.50
2022-10-22T07:03:51.359Z,100716.16
2022-10-22T07:06:18.475Z,100722.59
2022-10-22T07:08:45.204Z,100714.72
2022-10-22T07:11:17.374Z,100728.75
2022-10-22T07:13:44.880Z,100706.84
2022-10-22T07:16:12.564Z,100706.19
2022-10-22T07:18:40.659Z,100672.66
2022-10-22T07:21:09.429Z,100698.44
2022-10-22T07:23:36.886Z,100692.09
2022-10-22T07:26:07.270Z,100685.91
2022-10-22T07:28:35.032Z,100681.81
2022-10-22T07:31:01.815Z,100681.78
2022-10-22T07:33:28.775Z,100662.53
2022-10-22T07:36:02.776Z,100680.03
2022-10-22T07:38:29.888Z,100671.38
2022-10-22T07:40:56.786Z,100686.41
2022-10-22T07:43:24.151Z,100679.78
2022-10-22T07:45:50.987Z,100680.16
2022-10-22T07:48:18.198Z,100689.09
2022-10-22T07:53:11.492Z,100660.84
2022-10-22T07:55:38.361Z,100679.00
2022-10-22T07:58:05.089Z,100666.63
2022-10-22T08:00:31.968Z,100673.44
2022-10-22T08:02:59.056Z,100669.84
2022-10-22T08:05:25.994Z,100652.19
2022-10-22T08:07:52.950Z,100668.94
2022-10-22T08:10:19.690Z,100673.63
2022-10-22T08:12:46.404Z,100665.28
2022-10-22T08:15:13.223Z,100652.38
2022-10-22T08:17:40.506Z,100652.78
2022-10-22T08:20:08.388Z,100652.84
2022-10-22T08:22:36.036Z,100636.38
2022-10-22T08:25:02.709Z,100657.31
2022-10-22T08:27:29.384Z,100650.88
2022-10-22T08:29:56.137Z,100664.41
2022-10-22T08:32:22.977Z,100650.50
2022-10-22T08:34:49.991Z,100646.44
2022-10-22T08:37:18.915Z,100661.03
2022-10-22T08:39:45.774Z,100658.56
2022-10-22T08:42:21.536Z,100660.25
2022-10-22T08:44:56.561Z,100660.38
2022-10-22T08:47:40.438Z,100655.72
2022-10-22T08:50:12.296Z,100648.41
2022-10-22T08:52:44.773Z,100637.00
2022-10-22T08:55:16.073Z,100636.16
2022-10-22T08:58:06.155Z,100644.88
2022-10-22T09:00:46.187Z,100639.91
2022-10-22T09:03:34.780Z,100639.09
2022-10-22T09:06:22.730Z,100630.56
2022-10-22T09:08:50.544Z,100626.13
2022-10-22T09:11:23.829Z,100623.72
2022-10-22T09:13:54.075Z,100622.94
2022-10-22T09:16:25.305Z,100630.63
2022-10-22T09:19:04.680Z,100616.63
2022-10-22T09:21:53.968Z,100613.78
2022-10-22T09:24:38.655Z,100607.47
2022-10-22T09:27:29.460Z,100597.88
2022-10-22T09:29:56.738Z,100605.06
2022-10-22T09:32:23.691Z,100587.78
2022-10-22T09:34:55.011Z,100586.50
2022-10-22T09:37:27.679Z,100581.22
2022-10-22T09:39:56.810Z,100587.31
2022-10-22T09:42:23.801Z,100584.28
2022-10-22T09:44:59.778Z,100574.69
2022-10-22T09:47:43.456Z,100582.91
2022-10-22T09:50:31.277Z,100578.72
2022-10-22T09:53:01.579Z,100544.78
2022-10-22T09:55:29.387Z,100545.22
2022-10-22T09:57:59.327Z,100549.94
2022-10-22T10:00:27.225Z,100557.91
2022-10-22T10:02:56.635Z,100546.91
2022-10-22T10:05:35.115Z,100546.41
2022-10-22T10:08:15.942Z,100565.97
2022-10-22T10:11:05.936Z,100548.97
2022-10-22T10:13:46.537Z,100552.34
2022-10-22T10:16:41.545Z,100549.31
2022-10-22T10:19:27.246Z,100554.19
2022-10-22T10:21:59.824Z,100544.72
2022-10-22T10:24:55.015Z,100544.38
2022-10-22T10:27:35.375Z,100530.22
2022-10-22T10:30:11.074Z,100529.91
2022-10-22T10:33:13.025Z,100524.94
2022-10-22T10:35:39.862Z,100520.50
2022-10-22T10:38:17.036Z,100513.88
2022-10-22T10:41:19.345Z,100507.47
2022-10-22T10:44:27.842Z,100499.72
2022-10-22T10:47:03.584Z,100489.34
2022-10-22T10:49:33.656Z,100474.25
2022-10-22T10:52:20.468Z,100472.50
2022-10-22T10:55:01.627Z,100472.28
2022-10-22T10:58:02.476Z,100480.91
2022-10-22T11:00:40.825Z,100463.97
2022-10-22T11:03:31.564Z,100465.28
2022-10-22T11:06:00.387Z,100458.66
2022-10-22T11:08:36.049Z,100449.94
2022-10-22T11:11:17.765Z,100442.50
2022-10-22T11:13:47.620Z,100431.41
2022-10-22T11:16:49.027Z,100427.06
2022-10-22T11:19:49.676Z,100420.38
2022-10-22T11:23:13.112Z,100416.50
2022-10-22T11:25:40.767Z,100414.16
2022-10-22T11:28:22.266Z,100413.34
2022-10-22T11:31:02.945Z,100402.16
2022-10-22T11:33:39.663Z,100398.75
2022-10-22T11:36:08.476Z,100401.34
2022-10-22T11:38:36.550Z,100403.91
2022-10-22T11:41:15.984Z,100398.03
2022-10-22T11:44:07.501Z,100396.88
2022-10-22T11:47:09.555Z,100385.78
2022-10-22T11:49:55.656Z,100380.69
2022-10-22T11:52:33.034Z,100376.59
2022-10-22T11:55:23.792Z,100366.38
2022-10-22T11:57:50.712Z,100374.84
2022-10-22T12:00:48.121Z,100367.19
2022-10-22T12:03:48.048Z,100361.84
2022-10-22T12:06:19.851Z,100351.63
2022-10-22T12:08:49.783Z,100353.56
2022-10-22T12:11:19.654Z,100347.88
2022-10-22T12:14:19.054Z,100357.94
2022-10-22T12:16:58.110Z,100344.72
2022-10-22T12:19:39.930Z,100339.44
2022-10-22T12:22:06.752Z,100340.88
2022-10-22T12:24:44.717Z,100331.13
2022-10-22T12:27:27.883Z,100320.28
2022-10-22T12:29:59.483Z,100322.94
2022-10-22T12:32:38.306Z,100316.97
2022-10-22T12:35:07.970Z,100323.50
2022-10-22T12:37:38.620Z,100317.53
2022-10-22T12:40:45.804Z,100314.84
2022-10-22T12:43:16.921Z,100316.47
2022-10-22T12:45:46.232Z,100310.50
2022-10-22T12:48:21.895Z,100290.69
2022-10-22T12:50:54.641Z,100300.44
2022-10-22T12:53:27.152Z,100293.38
2022-10-22T12:55:55.926Z,100292.03
2022-10-22T12:58:27.489Z,100302.09
2022-10-22T13:00:57.721Z,100280.66
2022-10-22T13:03:50.974Z,100301.56
2022-10-22T13:06:20.814Z,100254.03
2022-10-22T13:08:59.774Z,100289.03
2022-10-22T13:12:04.914Z,100283.53
2022-10-22T13:14:34.341Z,100277.84
2022-10-22T13:17:17.429Z,100285.22
2022-10-22T13:19:53.316Z,100290.00
2022-10-22T13:22:38.109Z,100284.44
2022-10-22T13:25:26.335Z,100276.31
2022-10-22T13:27:56.915Z,100270.41
2022-10-22T13:30:28.434Z,100273.94
2022-10-22T13:33:05.338Z,100263.56
2022-10-22T13:35:36.009Z,100264.88
2022-10-22T13:38:03.383Z,100266.19
2022-10-22T13:40:30.028Z,100246.53
2022-10-22T13:42:56.869Z,100245.47
2022-10-22T13:45:23.627Z,100243.25
2022-10-22T13:47:53.700Z,100253.34
2022-10-22T13:50:21.722Z,100253.72
2022-10-22T13:52:53.359Z,100241.75
2022-10-22T13:55:29.164Z,100228.03
2022-10-22T13:58:11.116Z,100240.78
2022-10-22T14:00:46.398Z,100241.47
2022-10-22T14:03:16.382Z,100239.34
2022-10-22T14:05:43.555Z,100240.22
2022-10-22T14:08:16.130Z,100237.00
2022-10-22T14:10:44.038Z,100241.00
2022-10-22T14:13:11.797Z,100244.00
2022-10-22T14:15:38.765Z,100243.25
2022-10-22T14:18:07.522Z,100238.44
2022-10-22T14:20:37.583Z,100211.13
2022-10-22T14:25:52.012Z,100229.50
2022-10-22T14:28:19.121Z,100213.16
2022-10-22T14:30:48.716Z,100230.97
2022-10-22T14:33:15.449Z,100228.56
2022-10-22T14:35:42.295Z,100230.84
2022-10-22T14:38:12.075Z,100227.75
2022-10-22T14:40:42.754Z,100229.91
2022-10-22T14:43:22.858Z,100216.97
2022-10-22T14:45:50.212Z,100211.88
2022-10-22T14:50:45.484Z,100220.69
2022-10-22T14:53:13.754Z,100217.22
2022-10-22T14:55:41.990Z,100219.38
2022-10-22T14:58:09.325Z,100223.81
2022-10-22T15:00:39.169Z,100227.03
2022-10-22T15:03:06.013Z,100228.34
2022-10-22T15:05:33.009Z,100225.81
2022-10-22T15:08:00.900Z,100228.44
2022-10-22T15:10:27.753Z,100232.13
2022-10-22T15:12:54.526Z,100236.72
2022-10-22T15:15:29.554Z,100231.63
2022-10-22T15:18:02.934Z,100233.94
2022-10-22T15:20:29.806Z,100223.53
2022-10-22T15:22:57.926Z,100227.75
2022-10-22T15:25:27.373Z,100222.53
2022-10-22T15:27:58.510Z,100223.03
2022-10-22T15:30:34.422Z,100225.22
2022-10-22T15:33:02.076Z,100228.56
2022-10-22T15:35:28.912Z,100240.66
2022-10-22T15:37:55.859Z,100242.72
2022-10-22T15:40:22.571Z,100245.09
2022-10-22T15:42:49.229Z,100236.75
2022-10-22T15:45:16.289Z,100242.88
2022-10-22T15:47:48.284Z,100230.22
2022-10-22T15:50:15.324Z,100232.41
2022-10-22T15:52:42.126Z,100237.13
2022-10-22T15:55:10.796Z,100235.81
2022-10-22T15:57:39.403Z,100221.06
2022-10-22T16:00:08.329Z,100230.03
2022-10-22T16:02:35.045Z,100231.22
2022-10-22T16:05:01.967Z,100242.78
2022-10-22T16:07:29.901Z,100246.03
2022-10-22T16:09:58.485Z,100251.06
2022-10-22T16:12:25.275Z,100244.97
2022-10-22T16:14:52.817Z,100245.47
2022-10-22T16:17:19.740Z,100252.50
2022-10-22T16:19:48.236Z,100175.88
2022-10-22T16:22:15.810Z,100250.06
2022-10-22T16:24:43.023Z,100178.78
2022-10-22T16:27:10.602Z,100241.75
2022-10-22T16:29:39.106Z,100238.63
2022-10-22T16:32:06.311Z,100245.19
2022-10-22T16:34:33.354Z,100258.97
2022-10-22T16:37:00.357Z,100258.97
2022-10-22T16:39:27.146Z,100260.97
2022-10-22T16:41:53.899Z,100240.16
2022-10-22T16:44:21.114Z,100249.28
2022-10-22T16:46:47.868Z,100255.94
2022-10-22T16:49:15.804Z,100241.91
2022-10-22T16:51:42.746Z,100246.00
2022-10-22T16:54:12.582Z,100248.44
2022-10-22T16:56:39.846Z,100256.50
2022-10-22T16:59:06.627Z,100243.44
2022-10-22T17:01:36.858Z,100256.63
2022-10-22T17:04:07.414Z,100251.84
2022-10-22T17:06:34.130Z,100244.13
2022-10-22T17:09:00.998Z,100249.97
2022-10-22T17:11:30.328Z,100235.50
2022-10-22T17:13:57.199Z,100247.50
2022-10-22T17:16:25.027Z,100246.22
2022-10-22T17:18:53.748Z,100237.56
2022-10-22T17:21:21.759Z,100236.78
2022-10-22T17:23:48.672Z,100226.00
2022-10-22T17:26:20.955Z,100231.47
2022-10-22T17:28:48.739Z,100240.38
2022-10-22T17:31:20.467Z,100240.84
2022-10-22T17:33:48.697Z,100244.19
2022-10-22T17:36:17.311Z,100247.59
2022-10-22T17:38:51.075Z,100244.91
2022-10-22T17:41:21.812Z,100243.97
2022-10-22T17:43:49.074Z,100227.53
2022-10-22T17:46:21.845Z,100240.34
2022-10-22T17:48:56.093Z,100241.50
2022-10-22T17:51:23.778Z,100246.06
2022-10-22T17:53:52.096Z,100243.72
2022-10-22T17:56:24.580Z,100237.28
2022-10-22T17:58:52.127Z,100231.56
2022-10-22T18:01:31.645Z,100237.66
2022-10-22T18:04:08.145Z,100227.66
2022-10-22T18:06:35.780Z,100233.78
2022-10-22T18:09:11.517Z,100239.16
2022-10-22T18:11:40.741Z,100234.97
2022-10-22T18:14:08.345Z,100241.94
2022-10-22T18:16:35.341Z,100243.16
2022-10-22T18:19:02.090Z,100238.63
2022-10-22T18:21:30.259Z,100240.09
2022-10-22T18:23:59.659Z,100221.69
2022-10-22T18:26:27.111Z,100237.03
2022-10-22T18:28:54.628Z,100228.09
2022-10-22T18:31:23.527Z,100222.19
2022-10-22T18:33:50.897Z,100208.66
2022-10-22T18:36:20.439Z,100223.38
2022-10-22T18:38:56.054Z,100219.91
2022-10-22T18:41:23.055Z,100234.06
2022-10-22T18:43:57.174Z,100231.88
2022-10-22T18:46:24.519Z,100223.88
2022-10-22T18:48:55.641Z,100220.34
2022-10-22T18:51:24.314Z,100226.53
2022-10-22T18:54:04.730Z,100223.03
2022-10-22T18:56:32.574Z,100231.38
2022-10-22T18:58:59.297Z,100222.59
2022-10-22T19:01:29.485Z,100221.06
2022-10-22T19:03:57.334Z,100228.69
2022-10-22T19:06:30.557Z,100229.94
2022-10-22T19:09:00.309Z,100228.69
2022-10-22T19:11:27.635Z,100237.31
2022-10-22T19:13:54.537Z,100226.44
2022-10-22T19:16:27.031Z,100231.38
2022-10-22T19:18:59.682Z,100234.19
2022-10-22T19:21:26.589Z,100232.38
2022-10-22T19:24:00.916Z,100210.94
2022-10-22T19:26:29.212Z,100230.94
2022-10-22T19:28:57.079Z,100221.50
2022-10-22T19:31:25.268Z,100218.16
2022-10-22T19:33:54.710Z,100219.22
2022-10-22T19:36:24.524Z,100191.41
2022-10-22T19:38:51.887Z,100219.22
2022-10-22T19:41:20.208Z,100210.94
2022-10-22T19:43:50.085Z,100212.13
2022-10-22T19:46:17.996Z,100205.63
2022-10-22T19:51:17.988Z,100210.09
2022-10-22T19:53:45.122Z,100202.31
2022-10-22T19:56:12.540Z,100189.72
2022-10-22T19:58:39.697Z,100204.66
2022-10-22T20:01:11.317Z,100200.50
2022-10-22T20:03:38.884Z,100190.88
2022-10-22T20:06:07.715Z,100189.13
2022-10-22T20:08:38.493Z,100185.47
2022-10-22T20:11:07.819Z,100183.16
2022-10-22T20:13:35.453Z,100176.72
2022-10-22T20:16:02.278Z,100188.31
2022-10-22T20:18:29.055Z,100177.75
2022-10-22T20:20:55.807Z,100183.28
2022-10-22T20:23:22.616Z,100171.59
2022-10-22T20:25:49.450Z,100163.94
2022-10-22T20:28:17.022Z,100180.16
2022-10-22T20:30:45.300Z,100182.94
2022-10-22T20:33:12.136Z,100178.25
2022-10-22T20:35:39.533Z,100171.84
2022-10-22T20:38:07.599Z,100175.47
2022-10-22T20:40:36.409Z,100158.72
2022-10-22T20:43:03.113Z,100170.94
2022-10-22T20:45:29.950Z,100168.84
2022-10-22T20:48:02.758Z,100160.59
2022-10-22T20:50:32.137Z,100157.69
2022-10-22T20:52:59.620Z,100166.91
2022-10-22T20:55:27.614Z,100157.22
2022-10-22T20:57:54.361Z,100146.59
2022-10-22T21:00:21.483Z,100164.69
2022-10-22T21:02:48.170Z,100152.13
2022-10-22T21:05:14.930Z,100159.88
2022-10-22T21:07:42.035Z,100163.09
2022-10-22T21:10:09.218Z,100159.94
2022-10-22T21:12:36.149Z,100153.53
2022-10-22T21:15:03.030Z,100152.84
2022-10-22T21:17:29.757Z,100156.81
2022-10-22T21:19:56.504Z,100160.97
2022-10-22T21:22:23.275Z,100154.28
2022-10-22T21:24:49.957Z,100174.53
2022-10-22T21:27:16.621Z,100163.22
2022-10-22T21:29:43.306Z,100166.19
2022-10-22T21:32:10.010Z,100163.09
2022-10-22T21:34:38.886Z,100144.63
2022-10-22T21:37:06.009Z,100118.16
2022-10-22T21:39:32.698Z,100115.56
2022-10-22T21:41:59.458Z,100131.34
2022-10-22T21:44:26.225Z,100117.97
2022-10-22T21:46:52.982Z,100126.59
2022-10-22T21:49:19.783Z,100128.78
2022-10-22T21:51:46.829Z,100123.75
2022-10-22T21:54:13.605Z,100141.56
2022-10-22T21:56:41.477Z,100138.72
2022-10-22T21:59:08.207Z,100128.28
2022-10-22T22:01:35.811Z,100132.44
2022-10-22T22:04:03.214Z,100117.72
2022-10-22T22:06:33.467Z,100118.00
2022-10-22T22:09:01.862Z,100099.13
2022-10-22T22:11:29.512Z,100095.38
2022-10-22T22:13:58.251Z,100108.28
2022-10-22T22:16:29.453Z,100112.44
2022-10-22T22:18:58.880Z,100103.66
2022-10-22T22:21:27.186Z,100086.13
2022-10-22T22:23:54.123Z,100084.50
2022-10-22T22:26:26.691Z,100105.84
2022-10-22T22:28:57.375Z,100097.81
2022-10-22T22:31:27.598Z,100095.81
2022-10-22T22:34:14.014Z,100088.84
2022-10-22T22:36:43.420Z,100092.56
2022-10-22T22:39:16.273Z,100096.63
2022-10-22T22:41:43.425Z,100088.09
2022-10-22T22:44:10.541Z,100107.56
2022-10-22T22:46:37.497Z,100108.66
2022-10-22T22:49:04.461Z,100107.09
2022-10-22T22:51:31.429Z,100104.63
2022-10-22T22:54:00.213Z,100092.78
2022-10-22T22:56:29.418Z,100096.91
2022-10-22T22:58:56.820Z,100079.69
2022-10-22T23:01:25.119Z,100086.41
2022-10-22T23:03:56.802Z,100084.97
2022-10-22T23:06:25.492Z,100085.38
2022-10-22T23:08:53.739Z,100067.13
2022-10-22T23:11:22.000Z,100087.88
2022-10-22T23:13:56.941Z,100090.94
2022-10-22T23:16:26.016Z,100088.66
2022-10-22T23:18:54.974Z,100071.50
2022-10-22T23:21:34.139Z,100082.81
2022-10-22T23:24:03.675Z,100076.25
2022-10-22T23:26:40.017Z,100073.34
2022-10-22T23:29:15.978Z,100059.03
2022-10-22T23:31:44.613Z,100069.25
2022-10-22T23:34:13.934Z,100066.22
2022-10-22T23:36:40.682Z,100073.56
2022-10-22T23:39:09.899Z,100066.59
2022-10-22T23:41:36.935Z,100073.00
2022-10-22T23:44:04.695Z,100069.28
2022-10-22T23:46:32.809Z,100079.78
2022-10-22T23:49:00.766Z,100080.63
2022-10-22T23:51:27.906Z,100076.72
2022-10-22T23:53:56.947Z,100079.38
2022-10-22T23:56:24.178Z,100073.25
2022-10-22T23:58:52.231Z,100074.84
